Des Moines (DSM/KDSM)

Map

Destinations

Information

Location
Des Moines, IA
Local Time
01:29 / 1:29 am
GMT Time
07:29 / 7:29 am
Gates
Unassigned
No FAA reported delays
METAR KDSM 200654Z 22005KT 10SM FEW250 01/M03 A2978 RMK AO2 SLP090 T00061033
TAF KDSM 200535Z 2006/2106 23006KT P6SM BKN250 FM201400 22004KT P6SM SCT060 FM201600 24005KT P6SM BKN060 FM202000 VRB03KT P6SM SCT007 OVC110 FM210300 VRB04KT 5SM BR OVC015